Time;durP1;ratioP1;P1;durP2;ratioP2;P2;SDS_P1;SDS_P2;PMS_P1;PMS_P2;Temp;Humidity;BMP_temperature;BMP_pressure;BME280_temperature;BME280_humidity;BME280_pressure;Samples;Min_cycle;Max_cycle;Signal;HPM_P1;HPM_P2
2022/04/24 00:02:17;;;;;;;1999.90;999.90;;;13.60;78.50;;;;;;5034006;28;20168;-67
2022/04/24 00:04:43;;;;;;;1999.90;999.90;;;13.50;79.30;;;;;;5034922;28;20571;-67
2022/04/24 00:07:09;;;;;;;1999.90;999.90;;;13.50;79.50;;;;;;5034547;28;20413;-67
2022/04/24 00:09:37;;;;;;;1999.90;999.90;;;13.50;80.70;;;;;;5035465;28;20882;-67
2022/04/24 00:12:06;;;;;;;1999.90;999.90;;;13.50;80.80;;;;;;5035092;28;20428;-67
2022/04/24 00:14:33;;;;;;;1999.90;999.90;;;13.40;80.80;;;;;;5034886;28;20432;-67
2022/04/24 00:16:58;;;;;;;1999.90;999.90;;;13.30;81.10;;;;;;5035223;28;20449;-67
2022/04/24 00:19:24;;;;;;;1999.90;999.90;;;13.30;82.00;;;;;;5035189;28;20411;-67
2022/04/24 00:21:50;;;;;;;1999.90;999.90;;;13.20;83.10;;;;;;5034923;28;20166;-67
2022/04/24 00:24:16;;;;;;;1999.90;999.90;;;13.20;83.20;;;;;;5035074;28;20208;-67
2022/04/24 00:26:41;;;;;;;1999.90;999.90;;;13.10;83.90;;;;;;5034946;28;20417;-67
2022/04/24 00:29:07;;;;;;;1999.90;999.90;;;13.00;85.20;;;;;;5034394;28;20412;-67
2022/04/24 00:31:33;;;;;;;1999.90;999.90;;;13.00;86.10;;;;;;5034649;28;20203;-67
2022/04/24 00:33:58;;;;;;;1999.90;999.90;;;13.00;87.70;;;;;;5034155;28;20189;-67
2022/04/24 00:36:24;;;;;;;1999.90;999.90;;;12.90;88.40;;;;;;5034496;28;20195;-67
2022/04/24 00:38:50;;;;;;;1999.90;999.90;;;12.90;88.70;;;;;;5034554;28;20192;-67
2022/04/24 00:41:15;;;;;;;1999.90;999.90;;;12.80;89.90;;;;;;5034191;28;20172;-67
2022/04/24 00:43:41;;;;;;;1999.90;999.90;;;12.80;90.50;;;;;;5034051;28;20196;-67
2022/04/24 00:46:14;;;;;;;1999.90;999.90;;;12.80;91.00;;;;;;5034218;28;20176;-67
2022/04/24 00:48:44;;;;;;;1999.90;999.90;;;12.70;91.40;;;;;;5034416;28;20594;-67
2022/04/24 00:51:10;;;;;;;1999.90;999.90;;;12.70;92.10;;;;;;5034348;28;20402;-67
2022/04/24 00:53:36;;;;;;;1999.90;999.90;;;12.70;93.00;;;;;;5034137;28;20423;-67
2022/04/24 00:56:03;;;;;;;1999.90;999.90;;;12.70;93.30;;;;;;5034038;28;20854;-67
2022/04/24 00:58:28;;;;;;;1999.90;999.90;;;12.60;93.80;;;;;;5034322;28;20404;-67
2022/04/24 01:00:55;;;;;;;1999.90;999.90;;;12.70;94.30;;;;;;5034260;28;20406;-67
2022/04/24 01:03:21;;;;;;;1999.90;999.90;;;12.70;94.80;;;;;;5033904;28;20166;-67
2022/04/24 01:05:47;;;;;;;1999.90;999.90;;;12.70;95.00;;;;;;5033820;28;20416;-67
2022/04/24 01:08:12;;;;;;;1999.90;999.90;;;12.60;95.30;;;;;;5016116;28;20235;-67
2022/04/24 01:10:39;;;;;;;1999.90;999.90;;;12.60;95.60;;;;;;5034091;28;20255;-67
2022/04/24 01:13:05;;;;;;;1999.90;999.90;;;12.60;96.10;;;;;;5034165;28;20163;-67
2022/04/24 01:15:32;;;;;;;1999.90;999.90;;;12.60;96.70;;;;;;5033980;28;20755;-67
2022/04/24 01:17:58;;;;;;;1999.90;999.90;;;12.50;96.90;;;;;;5033948;28;20957;-67
2022/04/24 01:20:24;;;;;;;1999.90;999.90;;;12.50;97.70;;;;;;5033896;28;20872;-67
2022/04/24 01:22:49;;;;;;;1999.90;999.90;;;12.50;97.80;;;;;;5033896;28;20405;-67
2022/04/24 01:25:15;;;;;;;1999.90;999.90;;;12.50;98.30;;;;;;5033289;28;20519;-67
2022/04/24 01:27:41;;;;;;;1999.90;999.90;;;12.50;99.10;;;;;;5033911;28;20168;-67
2022/04/24 01:30:07;;;;;;;1999.90;999.90;;;12.40;99.70;;;;;;5033398;28;20695;-67
2022/04/24 01:32:38;;;;;;;1999.90;999.90;;;12.40;99.90;;;;;;5016241;28;20291;-67
2022/04/24 01:35:04;;;;;;;1999.90;999.90;;;12.40;99.90;;;;;;5033160;28;20939;-67
2022/04/24 01:37:30;;;;;;;1999.90;999.90;;;12.40;99.90;;;;;;5033907;28;20459;-67
2022/04/24 01:39:56;;;;;;;1999.90;999.90;;;12.30;99.90;;;;;;5033954;28;20501;-67
2022/04/24 01:42:22;;;;;;;1999.90;999.90;;;12.40;99.90;;;;;;5033625;28;20319;-67
2022/04/24 01:44:47;;;;;;;1999.90;999.90;;;12.30;99.90;;;;;;5033637;28;20208;-67
2022/04/24 01:47:13;;;;;;;1999.90;999.90;;;12.30;99.90;;;;;;5035180;28;20415;-67
2022/04/24 01:49:39;;;;;;;1999.90;999.90;;;12.30;99.90;;;;;;5036008;28;20268;-68
2022/04/24 01:52:08;;;;;;;1999.90;999.90;;;12.20;99.90;;;;;;5035945;28;20168;-67
2022/04/24 01:54:34;;;;;;;1999.90;999.90;;;12.30;99.90;;;;;;5035484;28;20714;-67
2022/04/24 01:56:59;;;;;;;1999.90;999.90;;;12.20;99.90;;;;;;5035955;28;20546;-68
2022/04/24 01:59:25;;;;;;;1999.90;999.90;;;12.20;99.90;;;;;;5035755;28;20619;-68
2022/04/24 02:01:51;;;;;;;1999.90;999.90;;;12.20;99.90;;;;;;5035783;28;20228;-68
2022/04/24 02:04:19;;;;;;;1999.90;999.90;;;12.10;99.90;;;;;;5035429;28;20207;-67
2022/04/24 02:06:44;;;;;;;1999.90;999.90;;;12.10;99.90;;;;;;5035645;28;20173;-68
2022/04/24 02:09:10;;;;;;;1999.90;999.90;;;12.00;99.90;;;;;;5036255;28;20415;-67
2022/04/24 02:11:36;;;;;;;1999.90;999.90;;;12.00;99.90;;;;;;5037638;28;20692;-67
2022/04/24 02:14:01;;;;;;;1999.90;999.90;;;12.00;99.90;;;;;;5035368;28;20209;-67
2022/04/24 02:16:27;;;;;;;1999.90;999.90;;;12.00;99.90;;;;;;5035450;28;20457;-67
2022/04/24 02:18:53;;;;;;;1999.90;999.90;;;12.00;99.90;;;;;;5035443;28;20230;-67
2022/04/24 02:21:18;;;;;;;1999.90;999.90;;;12.00;99.90;;;;;;5035368;28;20176;-67
2022/04/24 02:23:44;;;;;;;1999.90;999.90;;;12.10;99.90;;;;;;5035241;28;20189;-67
2022/04/24 02:26:10;;;;;;;1999.90;999.90;;;12.10;99.90;;;;;;5035060;28;20180;-67
2022/04/24 02:28:35;;;;;;;1999.90;999.90;;;12.20;99.90;;;;;;5035244;28;20538;-67
2022/04/24 02:31:01;;;;;;;1999.90;999.90;;;12.30;99.90;;;;;;5035203;28;20255;-67
2022/04/24 02:33:26;;;;;;;1999.90;999.90;;;12.20;99.90;;;;;;5035206;28;20657;-67
2022/04/24 02:35:52;;;;;;;1999.90;999.90;;;12.30;99.90;;;;;;5034805;28;20183;-67
2022/04/24 02:38:17;;;;;;;1999.90;999.90;;;12.30;99.90;;;;;;5035004;28;20277;-66
2022/04/24 02:40:43;;;;;;;1999.90;999.90;;;12.40;99.90;;;;;;5034997;28;20172;-67
2022/04/24 02:43:09;;;;;;;1999.90;999.90;;;12.40;99.90;;;;;;5034989;28;20560;-67
2022/04/24 02:45:34;;;;;;;1999.90;999.90;;;12.40;99.90;;;;;;5034534;28;20230;-67
2022/04/24 02:48:02;;;;;;;1999.90;999.90;;;12.40;99.90;;;;;;5035017;28;20538;-67
2022/04/24 02:50:27;;;;;;;1999.90;999.90;;;12.40;99.90;;;;;;5034859;28;20183;-67
2022/04/24 02:52:56;;;;;;;1999.90;999.90;;;12.40;99.90;;;;;;5034793;28;20412;-67
2022/04/24 02:55:24;;;;;;;1999.90;999.90;;;12.40;99.90;;;;;;5034452;28;20196;-67
2022/04/24 02:57:50;;;;;;;1999.90;999.90;;;12.40;99.90;;;;;;5034807;28;20899;-67
2022/04/24 03:00:22;;;;;;;1999.90;999.90;;;12.40;99.90;;;;;;5034853;28;20412;-67
2022/04/24 03:02:49;;;;;;;1999.90;999.90;;;12.40;99.90;;;;;;5034652;28;20494;-67
2022/04/24 03:05:24;;;;;;;1999.90;999.90;;;12.40;99.90;;;;;;5034175;28;20427;-67
2022/04/24 03:07:50;;;;;;;1999.90;999.90;;;12.40;99.90;;;;;;5034536;28;20417;-67
2022/04/24 03:10:16;;;;;;;1999.90;999.90;;;12.30;99.90;;;;;;5034545;28;20442;-67
2022/04/24 03:12:43;;;;;;;1999.90;999.90;;;12.30;99.90;;;;;;5034494;28;20801;-67
2022/04/24 03:15:11;;;;;;;1999.90;999.90;;;12.20;99.90;;;;;;5034154;28;20435;-67
2022/04/24 03:17:36;;;;;;;1999.90;999.90;;;12.20;99.90;;;;;;5034335;28;20489;-67
2022/04/24 03:20:05;;;;;;;1999.90;999.90;;;12.20;99.90;;;;;;5034269;28;20411;-67
2022/04/24 03:22:33;;;;;;;1999.90;999.90;;;12.10;99.90;;;;;;5034213;28;20230;-67
2022/04/24 03:25:09;;;;;;;1999.90;999.90;;;12.10;99.90;;;;;;5033974;28;20427;-67
2022/04/24 03:27:35;;;;;;;1999.90;999.90;;;12.10;99.90;;;;;;5034274;28;20772;-67
2022/04/24 03:30:01;;;;;;;1999.90;999.90;;;12.10;99.90;;;;;;5034168;28;20422;-67
2022/04/24 03:32:31;;;;;;;1999.90;999.90;;;12.00;99.90;;;;;;5034140;28;20181;-67
2022/04/24 03:34:56;;;;;;;1999.90;999.90;;;12.00;99.90;;;;;;5033981;28;20427;-67
2022/04/24 03:37:22;;;;;;;1999.90;999.90;;;12.00;99.90;;;;;;5033753;28;20474;-67
2022/04/24 03:39:48;;;;;;;1999.90;999.90;;;12.00;99.90;;;;;;5033992;28;20172;-67
2022/04/24 03:42:13;;;;;;;1999.90;999.90;;;11.80;99.90;;;;;;5033942;28;20183;-67
2022/04/24 03:44:39;;;;;;;1999.90;999.90;;;11.80;99.90;;;;;;5033444;28;20667;-67
2022/04/24 03:47:06;;;;;;;1999.90;999.90;;;11.70;99.90;;;;;;5033782;28;20175;-67
2022/04/24 03:49:32;;;;;;;1999.90;999.90;;;11.60;99.90;;;;;;5034072;28;20242;-67
2022/04/24 03:51:57;;;;;;;1999.90;999.90;;;11.50;99.90;;;;;;5033839;28;20496;-67
2022/04/24 03:54:23;;;;;;;1999.90;999.90;;;11.50;99.90;;;;;;5033302;28;20495;-67
2022/04/24 03:56:48;;;;;;;1999.90;999.90;;;11.30;99.90;;;;;;5033597;28;20193;-67
2022/04/24 03:59:14;;;;;;;1999.90;999.90;;;11.20;99.90;;;;;;5034708;28;20625;-68
2022/04/24 04:01:40;;;;;;;1999.90;999.90;;;11.10;99.90;;;;;;5037780;28;20239;-67
2022/04/24 04:04:05;;;;;;;1999.90;999.90;;;11.10;99.90;;;;;;5033625;28;20242;-68
2022/04/24 04:06:31;;;;;;;1999.90;999.90;;;11.10;99.90;;;;;;5037752;28;20169;-67
2022/04/24 04:08:56;;;;;;;1999.90;999.90;;;11.00;99.90;;;;;;5037111;28;20172;-67
2022/04/24 04:11:22;;;;;;;1999.90;999.90;;;10.90;99.90;;;;;;5037307;28;20184;-67
2022/04/24 04:13:47;;;;;;;1999.90;999.90;;;10.80;99.90;;;;;;5037091;28;20203;-67
2022/04/24 04:16:13;;;;;;;1999.90;999.90;;;10.80;99.90;;;;;;5037228;28;20199;-67
2022/04/24 04:18:39;;;;;;;1999.90;999.90;;;10.70;99.90;;;;;;5036790;28;20183;-67
2022/04/24 04:21:04;;;;;;;1999.90;999.90;;;10.60;99.90;;;;;;5036139;28;20251;-67
2022/04/24 04:23:30;;;;;;;1999.90;999.90;;;10.60;99.90;;;;;;5035988;28;20173;-67
2022/04/24 04:25:56;;;;;;;1999.90;999.90;;;10.60;99.90;;;;;;5036095;28;20186;-67
2022/04/24 04:28:21;;;;;;;1999.90;999.90;;;10.50;99.90;;;;;;5036379;28;20195;-67
2022/04/24 04:30:47;;;;;;;1999.90;999.90;;;10.50;99.90;;;;;;5035591;28;20196;-67
2022/04/24 04:33:12;;;;;;;1999.90;999.90;;;10.40;99.90;;;;;;5035942;28;20247;-67
2022/04/24 04:35:38;;;;;;;1999.90;999.90;;;10.40;99.90;;;;;;5035622;28;20168;-67
2022/04/24 04:38:04;;;;;;;1999.90;999.90;;;10.40;99.90;;;;;;5035956;28;20283;-67
2022/04/24 04:40:30;;;;;;;1999.90;999.90;;;10.40;99.90;;;;;;5035538;28;20181;-67
2022/04/24 04:42:56;;;;;;;1999.90;999.90;;;10.30;99.90;;;;;;5036041;28;20167;-67
2022/04/24 04:45:24;;;;;;;1999.90;999.90;;;10.40;99.90;;;;;;5035719;28;20834;-67
2022/04/24 04:47:50;;;;;;;1999.90;999.90;;;10.40;99.90;;;;;;5035260;28;20433;-67
2022/04/24 04:50:16;;;;;;;1999.90;999.90;;;10.40;99.90;;;;;;5035398;28;20410;-67
2022/04/24 04:52:41;;;;;;;1999.90;999.90;;;10.40;99.90;;;;;;5034749;28;20435;-67
2022/04/24 04:55:07;;;;;;;1999.90;999.90;;;10.40;99.90;;;;;;5034252;28;20210;-67
2022/04/24 04:57:33;;;;;;;1999.90;999.90;;;10.40;99.90;;;;;;5034849;28;20195;-67
2022/04/24 04:59:59;;;;;;;1999.90;999.90;;;10.40;99.90;;;;;;5034816;28;20176;-67
2022/04/24 05:02:24;;;;;;;1999.90;999.90;;;10.30;99.90;;;;;;5035270;28;20171;-67
2022/04/24 05:04:50;;;;;;;1999.90;999.90;;;10.40;99.90;;;;;;5035151;28;20181;-67
2022/04/24 05:07:15;;;;;;;1999.90;999.90;;;10.40;99.90;;;;;;5034860;28;20180;-67
2022/04/24 05:09:41;;;;;;;1999.90;999.90;;;10.40;99.90;;;;;;5035225;28;20171;-67
2022/04/24 05:12:07;;;;;;;1999.90;999.90;;;10.40;99.90;;;;;;5035431;28;20183;-67
2022/04/24 05:14:33;;;;;;;1999.90;999.90;;;10.50;99.90;;;;;;5034998;28;20198;-67
2022/04/24 05:16:59;;;;;;;1999.90;999.90;;;10.50;99.90;;;;;;5035085;28;20442;-67
2022/04/24 05:19:28;;;;;;;1999.90;999.90;;;10.50;99.90;;;;;;5035381;28;20175;-67
2022/04/24 05:21:53;;;;;;;1999.90;999.90;;;10.50;99.90;;;;;;5034610;28;20486;-67
2022/04/24 05:24:19;;;;;;;1999.90;999.90;;;10.60;99.90;;;;;;5035484;28;20460;-67
2022/04/24 05:26:45;;;;;;;1999.90;999.90;;;10.70;99.90;;;;;;5035862;28;20175;-67
2022/04/24 05:29:12;;;;;;;1999.90;999.90;;;10.90;99.90;;;;;;5035930;28;20232;-67
2022/04/24 05:31:38;;;;;;;1999.90;999.90;;;10.90;99.90;;;;;;5036535;28;20410;-67
2022/04/24 05:34:03;;;;;;;1999.90;999.90;;;11.00;99.90;;;;;;5035493;28;20430;-67
2022/04/24 05:36:29;;;;;;;1999.90;999.90;;;11.20;99.90;;;;;;5033810;28;20200;-67
2022/04/24 05:38:54;;;;;;;1999.90;999.90;;;11.30;99.90;;;;;;5034757;28;20153;-67
2022/04/24 05:41:20;;;;;;;1999.90;999.90;;;11.30;99.90;;;;;;5035000;28;20173;-67
2022/04/24 05:43:46;;;;;;;1999.90;999.90;;;11.40;99.90;;;;;;5034413;28;20210;-68
2022/04/24 05:46:12;;;;;;;1999.90;999.90;;;11.50;99.90;;;;;;5034409;28;20161;-67
2022/04/24 05:48:38;;;;;;;1999.90;999.90;;;11.60;99.90;;;;;;5034302;28;20175;-67
2022/04/24 05:51:04;;;;;;;1999.90;999.90;;;11.70;99.90;;;;;;5034282;28;20388;-67
2022/04/24 05:53:29;;;;;;;1999.90;999.90;;;11.80;99.90;;;;;;5001048;28;20180;-67
2022/04/24 05:55:56;;;;;;;1999.90;999.90;;;11.90;99.90;;;;;;5035249;28;20404;-67
2022/04/24 05:58:21;;;;;;;1999.90;999.90;;;11.90;99.90;;;;;;5034684;28;20288;-66
2022/04/24 06:00:47;;;;;;;1999.90;999.90;;;12.00;99.90;;;;;;5035498;28;20946;-67
2022/04/24 06:03:12;;;;;;;1999.90;999.90;;;12.00;99.90;;;;;;5035254;28;20541;-68
2022/04/24 06:05:38;;;;;;;1999.90;999.90;;;12.00;99.90;;;;;;5035091;28;20183;-67
2022/04/24 06:08:04;;;;;;;1999.90;999.90;;;12.10;99.90;;;;;;5035187;28;20215;-67
2022/04/24 06:10:30;;;;;;;1999.90;999.90;;;12.10;99.90;;;;;;5035318;28;20179;-67
2022/04/24 06:12:56;;;;;;;1999.90;999.90;;;12.20;99.90;;;;;;5035128;28;20195;-68
2022/04/24 06:15:25;;;;;;;1999.90;999.90;;;12.20;99.90;;;;;;5034629;28;20428;-67
2022/04/24 06:17:52;;;;;;;1999.90;999.90;;;12.30;99.90;;;;;;5035042;28;20458;-67
2022/04/24 06:20:19;;;;;;;1999.90;999.90;;;12.30;99.90;;;;;;5035036;28;20407;-67
2022/04/24 06:22:53;;;;;;;1999.90;999.90;;;12.40;99.90;;;;;;5034794;28;20410;-67
2022/04/24 06:25:21;;;;;;;1999.90;999.90;;;12.40;99.90;;;;;;5034940;28;20427;-67
2022/04/24 06:27:48;;;;;;;1999.90;999.90;;;12.40;99.90;;;;;;5034798;28;20423;-67
2022/04/24 06:30:15;;;;;;;1999.90;999.90;;;12.40;99.90;;;;;;5034716;28;20829;-67
2022/04/24 06:32:42;;;;;;;1999.90;999.90;;;12.50;99.90;;;;;;5037083;28;20502;-67
2022/04/24 06:35:10;;;;;;;1999.90;999.90;;;12.50;99.90;;;;;;5038452;28;20849;-67
2022/04/24 06:37:37;;;;;;;1999.90;999.90;;;12.60;99.90;;;;;;5038250;28;20450;-67
2022/04/24 06:40:06;;;;;;;1999.90;999.90;;;12.70;99.90;;;;;;5037915;28;20420;-67
2022/04/24 06:42:33;;;;;;;1999.90;999.90;;;12.60;99.90;;;;;;5037984;28;20412;-67
2022/04/24 06:44:58;;;;;;;1999.90;999.90;;;12.70;99.90;;;;;;5037630;28;20920;-67
2022/04/24 06:47:24;;;;;;;1999.90;999.90;;;12.70;99.90;;;;;;5038437;28;20423;-67
2022/04/24 06:49:49;;;;;;;1999.90;999.90;;;12.80;99.90;;;;;;5034748;28;20679;-67
2022/04/24 06:52:15;;;;;;;1999.90;999.90;;;12.90;99.90;;;;;;5034024;28;20246;-67
2022/04/24 06:54:40;;;;;;;1999.90;999.90;;;12.90;99.90;;;;;;5034037;28;20270;-67
2022/04/24 06:57:06;;;;;;;1999.90;999.90;;;13.00;99.90;;;;;;5034471;28;20212;-67
2022/04/24 06:59:31;;;;;;;1999.90;999.90;;;13.10;99.90;;;;;;5034068;28;20179;-67
2022/04/24 07:01:57;;;;;;;1999.90;999.90;;;13.10;99.90;;;;;;5034333;28;20192;-67
2022/04/24 07:04:22;;;;;;;1999.90;999.90;;;13.20;99.90;;;;;;5034019;28;20197;-67
2022/04/24 07:06:48;;;;;;;1999.90;999.90;;;13.30;99.90;;;;;;5033865;28;20546;-67
2022/04/24 07:09:14;;;;;;;1999.90;999.90;;;13.40;99.90;;;;;;5034197;28;20234;-67
2022/04/24 07:11:40;;;;;;;1999.90;999.90;;;13.50;99.90;;;;;;5033604;28;20186;-68
2022/04/24 07:14:06;;;;;;;1999.90;999.90;;;13.50;99.90;;;;;;5039134;28;20198;-67
2022/04/24 07:16:34;;;;;;;1999.90;999.90;;;13.60;99.90;;;;;;5039377;28;20511;-67
2022/04/24 07:19:00;;;;;;;1999.90;999.90;;;13.80;99.90;;;;;;5038959;28;20177;-67
2022/04/24 07:21:25;;;;;;;1999.90;999.90;;;13.90;99.90;;;;;;5039448;28;20409;-67
2022/04/24 07:23:51;;;;;;;1999.90;999.90;;;13.90;99.90;;;;;;5039511;28;20201;-67
2022/04/24 07:26:16;;;;;;;1999.90;999.90;;;13.90;99.90;;;;;;5038598;28;20181;-67
2022/04/24 07:28:42;;;;;;;1999.90;999.90;;;13.90;99.90;;;;;;5038312;28;20169;-68
2022/04/24 07:31:08;;;;;;;1999.90;999.90;;;14.00;99.90;;;;;;5038184;28;20169;-67
2022/04/24 07:33:34;;;;;;;1999.90;999.90;;;14.20;99.90;;;;;;5038895;28;20264;-67
2022/04/24 07:36:00;;;;;;;1999.90;999.90;;;14.40;99.90;;;;;;5038285;28;20184;-67
2022/04/24 07:38:26;;;;;;;1999.90;999.90;;;14.60;99.90;;;;;;5038426;28;20417;-67
2022/04/24 07:40:51;;;;;;;1999.90;999.90;;;14.70;99.90;;;;;;5038338;28;20779;-67
2022/04/24 07:43:17;;;;;;;1999.90;999.90;;;14.80;99.90;;;;;;5036431;28;20677;-67
2022/04/24 07:45:47;;;;;;;1999.90;999.90;;;15.10;99.90;;;;;;5083069;22;20649;-73
2022/04/24 07:48:13;;;;;;;1999.90;999.90;;;15.30;99.90;;;;;;5054161;28;20189;-73
2022/04/24 07:50:41;;;;;;;1999.90;999.90;;;15.40;99.90;;;;;;5053567;28;20402;-73
2022/04/24 07:53:08;;;;;;;1999.90;999.90;;;15.40;99.90;;;;;;5053861;28;20408;-74
2022/04/24 07:55:34;;;;;;;1999.90;999.90;;;15.40;99.90;;;;;;5059950;28;20431;-74
2022/04/24 07:58:00;;;;;;;1999.90;999.90;;;15.40;99.90;;;;;;5073808;28;20516;-74
2022/04/24 08:00:28;;;;;;;1999.90;999.90;;;15.50;99.90;;;;;;5072524;28;20416;-74
2022/04/24 08:02:57;;;;;;;1999.90;999.90;;;15.50;99.90;;;;;;5073572;28;20433;-73
2022/04/24 08:05:32;;;;;;;1999.90;999.90;;;15.60;99.90;;;;;;5073180;28;21158;-73
2022/04/24 08:07:59;;;;;;;1999.90;999.90;;;15.70;99.90;;;;;;5073377;28;20443;-73
2022/04/24 08:10:27;;;;;;;1999.90;999.90;;;15.50;99.90;;;;;;5073560;28;20401;-73
2022/04/24 08:12:53;;;;;;;1999.90;999.90;;;15.60;99.90;;;;;;5073379;28;20805;-73
2022/04/24 08:15:19;;;;;;;1999.90;999.90;;;15.50;99.90;;;;;;5072900;28;20562;-73
2022/04/24 08:17:45;;;;;;;1999.90;999.90;;;15.50;99.90;;;;;;5073248;28;20534;-73
2022/04/24 08:20:13;;;;;;;1999.90;999.90;;;15.60;99.90;;;;;;5073110;28;20403;-73
2022/04/24 08:22:41;;;;;;;1999.90;999.90;;;15.40;99.90;;;;;;5073223;28;20999;-73
2022/04/24 08:25:08;;;;;;;1999.90;999.90;;;15.40;99.90;;;;;;5072804;28;20426;-73
2022/04/24 08:27:35;;;;;;;1999.90;999.90;;;15.50;99.90;;;;;;5072940;28;20778;-73
2022/04/24 08:30:02;;;;;;;1999.90;999.90;;;15.50;99.90;;;;;;5073035;28;20479;-73
2022/04/24 08:32:27;;;;;;;1999.90;999.90;;;15.40;99.90;;;;;;5073032;28;20431;-74
2022/04/24 08:34:56;;;;;;;1999.90;999.90;;;15.30;99.90;;;;;;5072561;28;20439;-73
2022/04/24 08:37:22;;;;;;;1999.90;999.90;;;15.40;99.90;;;;;;5072857;28;20244;-73
2022/04/24 08:39:48;;;;;;;1999.90;999.90;;;15.60;99.90;;;;;;5071627;28;20990;-74
2022/04/24 08:42:18;;;;;;;1999.90;999.90;;;15.90;99.90;;;;;;5072859;28;20490;-70
2022/04/24 08:44:46;;;;;;;1999.90;999.90;;;16.00;99.90;;;;;;5068607;28;20592;-71
2022/04/24 08:47:14;;;;;;;1999.90;999.90;;;16.00;99.90;;;;;;5071949;28;20452;-73
2022/04/24 08:49:40;;;;;;;1999.90;999.90;;;16.20;99.90;;;;;;5072029;28;20482;-73
2022/04/24 08:52:08;;;;;;;1999.90;999.90;;;16.30;99.90;;;;;;5071718;28;20447;-72
2022/04/24 08:54:34;;;;;;;1999.90;999.90;;;16.40;99.90;;;;;;5071096;28;20787;-72
2022/04/24 08:56:59;;;;;;;1999.90;999.90;;;16.60;99.90;;;;;;5071457;28;20461;-72
2022/04/24 08:59:25;;;;;;;1999.90;999.90;;;16.50;99.90;;;;;;5071582;28;20405;-71
2022/04/24 09:01:51;;;;;;;1999.90;999.90;;;16.30;99.90;;;;;;5071804;28;20227;-71
2022/04/24 09:04:19;;;;;;;1999.90;999.90;;;16.30;99.90;;;;;;5071496;28;20212;-71
2022/04/24 09:06:55;;;;;;;1999.90;999.90;;;16.20;99.90;;;;;;5070880;28;20436;-71
2022/04/24 09:09:21;;;;;;;1999.90;999.90;;;16.00;99.90;;;;;;5071793;28;20987;-71
2022/04/24 09:11:47;;;;;;;1999.90;999.90;;;15.80;99.90;;;;;;5073015;28;20494;-72
2022/04/24 09:14:15;;;;;;;1999.90;999.90;;;15.80;99.90;;;;;;5074239;28;20177;-74
2022/04/24 09:16:50;;;;;;;1999.90;999.90;;;16.10;99.90;;;;;;5075325;28;20209;-73
2022/04/24 09:19:17;;;;;;;1999.90;999.90;;;16.20;99.90;;;;;;5076433;28;20893;-73
2022/04/24 09:21:44;;;;;;;1999.90;999.90;;;16.30;99.90;;;;;;5074871;28;20404;-72
2022/04/24 09:24:09;;;;;;;1999.90;999.90;;;16.30;99.90;;;;;;5074691;28;21072;-73
2022/04/24 09:26:35;;;;;;;1999.90;999.90;;;16.60;99.90;;;;;;5075517;28;20433;-74
2022/04/24 09:29:00;;;;;;;1999.90;999.90;;;17.00;99.90;;;;;;5075183;28;20258;-73
2022/04/24 09:31:29;;;;;;;1999.90;999.90;;;17.30;99.90;;;;;;5075204;28;20176;-74
2022/04/24 09:33:55;;;;;;;1999.90;999.90;;;17.50;99.90;;;;;;5073702;28;20171;-75
2022/04/24 09:36:24;;;;;;;1999.90;999.90;;;17.60;99.90;;;;;;5073191;28;20532;-73
2022/04/24 09:38:51;;;;;;;1999.90;999.90;;;17.70;99.90;;;;;;5075614;28;20181;-74
2022/04/24 09:41:21;;;;;;;1999.90;999.90;;;17.80;99.90;;;;;;5074696;28;20463;-74
2022/04/24 09:43:48;;;;;;;1999.90;999.90;;;17.90;99.90;;;;;;5073400;28;20761;-73
2022/04/24 09:46:23;;;;;;;1999.90;999.90;;;17.90;99.90;;;;;;5073641;28;20455;-74
2022/04/24 09:48:52;;;;;;;1999.90;999.90;;;18.00;99.90;;;;;;5074336;28;20389;-73
2022/04/24 09:51:22;;;;;;;1999.90;999.90;;;18.00;99.40;;;;;;5073523;28;20406;-74
2022/04/24 09:53:48;;;;;;;1999.90;999.90;;;18.00;98.00;;;;;;5073601;28;20405;-73
2022/04/24 09:56:15;;;;;;;1999.90;999.90;;;18.00;97.50;;;;;;5073957;28;20994;-74
2022/04/24 09:58:41;;;;;;;1999.90;999.90;;;18.00;97.60;;;;;;5073222;28;20369;-74
2022/04/24 10:01:08;;;;;;;1999.90;999.90;;;18.00;97.50;;;;;;5073491;28;20747;-74
2022/04/24 10:03:39;;;;;;;1999.90;999.90;;;18.00;99.30;;;;;;5074089;28;20166;-74
2022/04/24 10:06:07;;;;;;;1999.90;999.90;;;18.20;97.30;;;;;;5075010;28;20786;-74
2022/04/24 10:08:36;;;;;;;1999.90;999.90;;;18.30;97.20;;;;;;5076822;28;20413;-74
2022/04/24 10:11:04;;;;;;;1999.90;999.90;;;18.40;96.00;;;;;;5077987;28;20432;-73
2022/04/24 10:13:31;;;;;;;1999.90;999.90;;;18.60;95.20;;;;;;5077253;28;20417;-73
2022/04/24 10:16:24;;;;;;;1999.90;999.90;;;18.70;94.60;;;;;;5077269;28;20422;-74
2022/04/24 10:18:53;;;;;;;1999.90;999.90;;;18.80;94.70;;;;;;5077438;28;20410;-74
2022/04/24 10:21:37;;;;;;;1999.90;999.90;;;19.00;93.30;;;;;;5077444;28;20410;-74
2022/04/24 10:24:12;;;;;;;1999.90;999.90;;;19.10;93.90;;;;;;5077437;28;20411;-74
2022/04/24 10:26:39;;;;;;;1999.90;999.90;;;19.40;91.60;;;;;;5076230;28;20474;-73
2022/04/24 10:29:07;;;;;;;1999.90;999.90;;;19.30;90.90;;;;;;5077013;28;20970;-74
2022/04/24 10:31:46;;;;;;;1999.90;999.90;;;19.30;87.40;;;;;;5077091;28;20911;-73
2022/04/24 10:34:16;;;;;;;1999.90;999.90;;;19.50;92.30;;;;;;5077295;28;20510;-74
2022/04/24 10:37:01;;;;;;;1999.90;999.90;;;19.70;87.90;;;;;;5076169;28;20454;-74
2022/04/24 10:39:29;;;;;;;1999.90;999.90;;;19.80;88.20;;;;;;5076100;28;20422;-74
2022/04/24 10:42:07;;;;;;;1999.90;999.90;;;19.90;82.70;;;;;;5076181;28;20455;-74
2022/04/24 10:44:33;;;;;;;1999.90;999.90;;;20.00;86.00;;;;;;5076859;28;20409;-74
2022/04/24 10:47:09;;;;;;;1999.90;999.90;;;20.10;76.10;;;;;;5077256;28;20444;-74
2022/04/24 10:49:35;;;;;;;1999.90;999.90;;;20.10;77.60;;;;;;5076692;28;20252;-74
2022/04/24 10:52:03;;;;;;;1999.90;999.90;;;20.30;78.70;;;;;;5076456;28;20449;-74
2022/04/24 10:54:36;;;;;;;1999.90;999.90;;;20.40;78.40;;;;;;5076925;28;20167;-74
2022/04/24 10:57:16;;;;;;;1999.90;999.90;;;20.40;73.30;;;;;;5076109;28;20506;-74
2022/04/24 10:59:51;;;;;;;1999.90;999.90;;;20.50;67.80;;;;;;5076720;28;20411;-74
2022/04/24 11:02:43;;;;;;;1999.90;999.90;;;20.70;68.10;;;;;;5077067;28;20800;-74
2022/04/24 11:05:12;;;;;;;1999.90;999.90;;;20.80;71.70;;;;;;5073723;28;20645;-74
2022/04/24 11:07:38;;;;;;;1999.90;999.90;;;20.90;64.70;;;;;;5076633;28;20412;-74
2022/04/24 11:10:08;;;;;;;1999.90;999.90;;;21.20;71.80;;;;;;5075750;28;20412;-74
2022/04/24 11:12:35;;;;;;;1999.90;999.90;;;21.40;66.40;;;;;;5075502;28;20410;-74
2022/04/24 11:15:11;;;;;;;1999.90;999.90;;;21.70;65.00;;;;;;5073911;28;20405;-75
2022/04/24 11:17:38;;;;;;;1999.90;999.90;;;22.00;67.60;;;;;;5075711;28;20456;-74
2022/04/24 11:20:09;;;;;;;1999.90;999.90;;;22.10;58.00;;;;;;5075227;28;20410;-74
2022/04/24 11:22:52;;;;;;;1999.90;999.90;;;22.20;59.70;;;;;;5078978;28;20403;-74
2022/04/24 11:25:20;;;;;;;1999.90;999.90;;;22.30;57.10;;;;;;5079524;28;20433;-74
2022/04/24 11:27:51;;;;;;;1999.90;999.90;;;22.10;54.30;;;;;;5076437;28;20401;-74
2022/04/24 11:30:21;;;;;;;1999.90;999.90;;;21.90;52.70;;;;;;5076830;28;20781;-74
2022/04/24 11:32:58;;;;;;;1999.90;999.90;;;22.00;54.70;;;;;;5076734;28;20429;-74
2022/04/24 11:35:26;;;;;;;1999.90;999.90;;;21.90;52.20;;;;;;5076036;28;20996;-74
2022/04/24 11:37:53;;;;;;;1999.90;999.90;;;22.00;53.40;;;;;;5077028;28;20416;-74
2022/04/24 11:40:19;;;;;;;1999.90;999.90;;;22.00;51.10;;;;;;5076520;28;20398;-74
2022/04/24 11:42:44;;;;;;;1999.90;999.90;;;21.90;51.00;;;;;;5076274;28;20424;-74
2022/04/24 11:50:50;;;;;;;1999.90;999.90;;;22.50;49.20;;;;;;5076188;28;20405;-74
2022/04/24 11:53:22;;;;;;;1999.90;999.90;;;22.70;45.50;;;;;;5076193;28;20403;-74
2022/04/24 11:56:04;;;;;;;1999.90;999.90;;;22.70;45.10;;;;;;5075643;28;20426;-74
2022/04/24 11:58:34;;;;;;;1999.90;999.90;;;23.20;43.10;;;;;;5076551;28;20428;-74
2022/04/24 12:01:02;;;;;;;1999.90;999.90;;;23.70;41.40;;;;;;5076104;28;20612;-74
2022/04/24 12:03:29;;;;;;;1999.90;999.90;;;24.20;41.70;;;;;;5075884;28;20376;-74
2022/04/24 12:06:03;;;;;;;1999.90;999.90;;;24.20;37.50;;;;;;5076407;28;20391;-74